sensor_id;sensor_type;location;lat;lon;timestamp;P1;durP1;ratioP1;P2;durP2;ratioP2
55210;SDS011;41082;52.822;6.666;2022-11-20T00:00:25;10.80;;;7.25;;
55210;SDS011;41082;52.822;6.666;2022-11-20T00:02:50;11.30;;;6.30;;
55210;SDS011;41082;52.822;6.666;2022-11-20T00:05:16;13.43;;;6.85;;
55210;SDS011;41082;52.822;6.666;2022-11-20T00:07:42;11.45;;;6.47;;
55210;SDS011;41082;52.822;6.666;2022-11-20T00:10:07;10.73;;;6.60;;
55210;SDS011;41082;52.822;6.666;2022-11-20T00:12:33;11.82;;;7.28;;
55210;SDS011;41082;52.822;6.666;2022-11-20T00:14:59;11.60;;;6.90;;
55210;SDS011;41082;52.822;6.666;2022-11-20T00:17:24;11.40;;;6.85;;
55210;SDS011;41082;52.822;6.666;2022-11-20T00:19:50;11.27;;;7.28;;
55210;SDS011;41082;52.822;6.666;2022-11-20T00:22:16;12.50;;;7.40;;
55210;SDS011;41082;52.822;6.666;2022-11-20T00:24:41;11.63;;;7.53;;
55210;SDS011;41082;52.822;6.666;2022-11-20T00:27:07;13.55;;;7.65;;
55210;SDS011;41082;52.822;6.666;2022-11-20T00:29:33;15.65;;;7.32;;
55210;SDS011;41082;52.822;6.666;2022-11-20T00:31:58;14.18;;;7.03;;
55210;SDS011;41082;52.822;6.666;2022-11-20T00:34:24;14.35;;;7.80;;
55210;SDS011;41082;52.822;6.666;2022-11-20T00:36:50;12.48;;;7.97;;
55210;SDS011;41082;52.822;6.666;2022-11-20T00:39:15;16.67;;;7.90;;
55210;SDS011;41082;52.822;6.666;2022-11-20T00:41:41;11.13;;;7.43;;
55210;SDS011;41082;52.822;6.666;2022-11-20T00:44:06;12.75;;;7.80;;
55210;SDS011;41082;52.822;6.666;2022-11-20T00:46:32;12.70;;;7.75;;
55210;SDS011;41082;52.822;6.666;2022-11-20T00:48:57;14.35;;;7.85;;
55210;SDS011;41082;52.822;6.666;2022-11-20T00:51:23;11.80;;;7.60;;
55210;SDS011;41082;52.822;6.666;2022-11-20T00:53:50;12.65;;;8.10;;
55210;SDS011;41082;52.822;6.666;2022-11-20T00:56:17;11.60;;;7.65;;
55210;SDS011;41082;52.822;6.666;2022-11-20T00:58:45;11.65;;;7.70;;
55210;SDS011;41082;52.822;6.666;2022-11-20T01:01:22;15.50;;;8.18;;
55210;SDS011;41082;52.822;6.666;2022-11-20T01:03:50;12.57;;;8.18;;
55210;SDS011;41082;52.822;6.666;2022-11-20T01:06:20;10.80;;;7.53;;
55210;SDS011;41082;52.822;6.666;2022-11-20T01:08:48;14.30;;;8.70;;
55210;SDS011;41082;52.822;6.666;2022-11-20T01:11:17;15.50;;;8.55;;
55210;SDS011;41082;52.822;6.666;2022-11-20T01:13:53;12.15;;;8.15;;
55210;SDS011;41082;52.822;6.666;2022-11-20T01:16:24;12.63;;;8.20;;
55210;SDS011;41082;52.822;6.666;2022-11-20T01:18:52;12.07;;;7.72;;
55210;SDS011;41082;52.822;6.666;2022-11-20T01:21:21;13.07;;;8.20;;
55210;SDS011;41082;52.822;6.666;2022-11-20T01:23:49;13.65;;;8.40;;
55210;SDS011;41082;52.822;6.666;2022-11-20T01:26:18;13.40;;;7.75;;
55210;SDS011;41082;52.822;6.666;2022-11-20T01:28:46;11.38;;;7.50;;
55210;SDS011;41082;52.822;6.666;2022-11-20T01:31:13;14.05;;;8.65;;
55210;SDS011;41082;52.822;6.666;2022-11-20T01:33:43;12.52;;;7.80;;
55210;SDS011;41082;52.822;6.666;2022-11-20T01:36:10;14.02;;;8.70;;
55210;SDS011;41082;52.822;6.666;2022-11-20T01:38:36;12.93;;;7.90;;
55210;SDS011;41082;52.822;6.666;2022-11-20T01:41:02;13.45;;;7.97;;
55210;SDS011;41082;52.822;6.666;2022-11-20T01:43:28;12.98;;;7.78;;
55210;SDS011;41082;52.822;6.666;2022-11-20T01:51:39;13.82;;;8.23;;
55210;SDS011;41082;52.822;6.666;2022-11-20T01:54:14;12.50;;;7.95;;
55210;SDS011;41082;52.822;6.666;2022-11-20T01:56:44;12.48;;;8.45;;
55210;SDS011;41082;52.822;6.666;2022-11-20T01:59:13;13.10;;;8.13;;
55210;SDS011;41082;52.822;6.666;2022-11-20T02:01:42;12.38;;;8.40;;
55210;SDS011;41082;52.822;6.666;2022-11-20T02:04:07;13.30;;;8.55;;
55210;SDS011;41082;52.822;6.666;2022-11-20T02:06:48;12.73;;;8.45;;
55210;SDS011;41082;52.822;6.666;2022-11-20T02:09:18;15.13;;;8.82;;
55210;SDS011;41082;52.822;6.666;2022-11-20T02:11:44;14.80;;;9.35;;
55210;SDS011;41082;52.822;6.666;2022-11-20T02:14:09;15.23;;;8.57;;
55210;SDS011;41082;52.822;6.666;2022-11-20T02:16:45;15.57;;;8.43;;
55210;SDS011;41082;52.822;6.666;2022-11-20T02:19:23;14.23;;;8.85;;
55210;SDS011;41082;52.822;6.666;2022-11-20T02:22:00;13.82;;;8.77;;
55210;SDS011;41082;52.822;6.666;2022-11-20T02:24:31;12.57;;;8.93;;
55210;SDS011;41082;52.822;6.666;2022-11-20T02:27:10;15.00;;;9.38;;
55210;SDS011;41082;52.822;6.666;2022-11-20T02:29:39;14.18;;;9.13;;
55210;SDS011;41082;52.822;6.666;2022-11-20T02:35:07;18.17;;;9.55;;
55210;SDS011;41082;52.822;6.666;2022-11-20T02:37:33;14.32;;;8.93;;
55210;SDS011;41082;52.822;6.666;2022-11-20T02:40:02;15.05;;;9.55;;
55210;SDS011;41082;52.822;6.666;2022-11-20T02:42:27;14.82;;;8.80;;
55210;SDS011;41082;52.822;6.666;2022-11-20T02:44:53;12.88;;;9.30;;
55210;SDS011;41082;52.822;6.666;2022-11-20T02:47:19;12.75;;;8.43;;
55210;SDS011;41082;52.822;6.666;2022-11-20T02:49:44;16.65;;;8.80;;
55210;SDS011;41082;52.822;6.666;2022-11-20T02:52:10;15.70;;;8.93;;
55210;SDS011;41082;52.822;6.666;2022-11-20T02:54:35;13.80;;;9.40;;
55210;SDS011;41082;52.822;6.666;2022-11-20T02:57:01;13.02;;;9.13;;
55210;SDS011;41082;52.822;6.666;2022-11-20T02:59:26;16.27;;;9.50;;
55210;SDS011;41082;52.822;6.666;2022-11-20T03:01:52;14.85;;;8.90;;
55210;SDS011;41082;52.822;6.666;2022-11-20T03:04:17;11.82;;;8.85;;
55210;SDS011;41082;52.822;6.666;2022-11-20T03:06:43;15.25;;;9.18;;
55210;SDS011;41082;52.822;6.666;2022-11-20T03:09:08;13.68;;;9.50;;
55210;SDS011;41082;52.822;6.666;2022-11-20T03:11:34;17.60;;;10.05;;
55210;SDS011;41082;52.822;6.666;2022-11-20T03:14:03;13.88;;;9.70;;
55210;SDS011;41082;52.822;6.666;2022-11-20T03:16:30;15.82;;;9.57;;
55210;SDS011;41082;52.822;6.666;2022-11-20T03:18:56;15.07;;;9.88;;
55210;SDS011;41082;52.822;6.666;2022-11-20T03:21:22;16.75;;;9.40;;
55210;SDS011;41082;52.822;6.666;2022-11-20T03:23:47;16.88;;;9.80;;
55210;SDS011;41082;52.822;6.666;2022-11-20T03:26:15;12.80;;;9.13;;
55210;SDS011;41082;52.822;6.666;2022-11-20T03:28:41;15.80;;;9.65;;
55210;SDS011;41082;52.822;6.666;2022-11-20T03:31:13;16.40;;;10.68;;
55210;SDS011;41082;52.822;6.666;2022-11-20T03:33:40;16.90;;;9.40;;
55210;SDS011;41082;52.822;6.666;2022-11-20T03:36:07;15.07;;;9.15;;
55210;SDS011;41082;52.822;6.666;2022-11-20T03:38:35;13.65;;;9.10;;
55210;SDS011;41082;52.822;6.666;2022-11-20T03:41:06;14.18;;;9.35;;
55210;SDS011;41082;52.822;6.666;2022-11-20T03:43:36;12.30;;;8.68;;
55210;SDS011;41082;52.822;6.666;2022-11-20T03:46:02;14.75;;;9.88;;
55210;SDS011;41082;52.822;6.666;2022-11-20T03:48:28;17.17;;;9.82;;
55210;SDS011;41082;52.822;6.666;2022-11-20T03:51:10;17.85;;;9.85;;
55210;SDS011;41082;52.822;6.666;2022-11-20T03:53:39;18.63;;;10.25;;
55210;SDS011;41082;52.822;6.666;2022-11-20T03:56:05;14.35;;;9.68;;
55210;SDS011;41082;52.822;6.666;2022-11-20T03:58:33;16.23;;;10.07;;
55210;SDS011;41082;52.822;6.666;2022-11-20T04:01:20;15.73;;;9.60;;
55210;SDS011;41082;52.822;6.666;2022-11-20T04:03:48;14.60;;;9.85;;
55210;SDS011;41082;52.822;6.666;2022-11-20T04:06:15;15.43;;;9.68;;
55210;SDS011;41082;52.822;6.666;2022-11-20T04:09:01;15.95;;;10.05;;
55210;SDS011;41082;52.822;6.666;2022-11-20T04:11:28;16.67;;;10.50;;
55210;SDS011;41082;52.822;6.666;2022-11-20T04:13:56;14.02;;;9.18;;
55210;SDS011;41082;52.822;6.666;2022-11-20T04:16:24;18.08;;;9.63;;
55210;SDS011;41082;52.822;6.666;2022-11-20T04:18:56;14.52;;;9.30;;
55210;SDS011;41082;52.822;6.666;2022-11-20T04:21:23;15.63;;;9.93;;
55210;SDS011;41082;52.822;6.666;2022-11-20T04:23:50;14.88;;;10.10;;
55210;SDS011;41082;52.822;6.666;2022-11-20T04:26:17;16.17;;;9.77;;
55210;SDS011;41082;52.822;6.666;2022-11-20T04:28:43;13.73;;;9.63;;
55210;SDS011;41082;52.822;6.666;2022-11-20T04:31:13;15.35;;;8.85;;
55210;SDS011;41082;52.822;6.666;2022-11-20T04:33:44;15.07;;;9.65;;
55210;SDS011;41082;52.822;6.666;2022-11-20T04:36:10;14.65;;;9.60;;
55210;SDS011;41082;52.822;6.666;2022-11-20T04:38:37;13.30;;;8.95;;
55210;SDS011;41082;52.822;6.666;2022-11-20T04:41:04;15.30;;;9.35;;
55210;SDS011;41082;52.822;6.666;2022-11-20T04:43:31;14.57;;;9.52;;
55210;SDS011;41082;52.822;6.666;2022-11-20T04:45:58;16.02;;;9.70;;
55210;SDS011;41082;52.822;6.666;2022-11-20T04:48:24;15.75;;;9.95;;
55210;SDS011;41082;52.822;6.666;2022-11-20T04:50:51;17.05;;;9.95;;
55210;SDS011;41082;52.822;6.666;2022-11-20T04:53:18;15.27;;;9.35;;
55210;SDS011;41082;52.822;6.666;2022-11-20T04:55:44;15.20;;;9.73;;
55210;SDS011;41082;52.822;6.666;2022-11-20T04:58:10;15.70;;;9.98;;
55210;SDS011;41082;52.822;6.666;2022-11-20T05:00:36;17.27;;;10.07;;
55210;SDS011;41082;52.822;6.666;2022-11-20T05:03:02;14.80;;;9.75;;
55210;SDS011;41082;52.822;6.666;2022-11-20T05:05:28;14.00;;;9.45;;
55210;SDS011;41082;52.822;6.666;2022-11-20T05:07:55;15.05;;;8.80;;
55210;SDS011;41082;52.822;6.666;2022-11-20T05:10:22;14.30;;;9.57;;
55210;SDS011;41082;52.822;6.666;2022-11-20T05:12:47;12.68;;;9.35;;
55210;SDS011;41082;52.822;6.666;2022-11-20T05:15:13;12.80;;;8.95;;
55210;SDS011;41082;52.822;6.666;2022-11-20T05:17:39;14.93;;;9.25;;
55210;SDS011;41082;52.822;6.666;2022-11-20T05:20:04;13.68;;;9.00;;
55210;SDS011;41082;52.822;6.666;2022-11-20T05:22:30;15.90;;;9.98;;
55210;SDS011;41082;52.822;6.666;2022-11-20T05:24:56;12.70;;;8.65;;
55210;SDS011;41082;52.822;6.666;2022-11-20T05:27:21;16.75;;;9.02;;
55210;SDS011;41082;52.822;6.666;2022-11-20T05:29:47;12.57;;;8.10;;
55210;SDS011;41082;52.822;6.666;2022-11-20T05:32:12;14.02;;;8.85;;
55210;SDS011;41082;52.822;6.666;2022-11-20T05:34:38;15.27;;;9.88;;
55210;SDS011;41082;52.822;6.666;2022-11-20T05:37:03;14.68;;;9.18;;
55210;SDS011;41082;52.822;6.666;2022-11-20T05:39:29;15.30;;;9.25;;
55210;SDS011;41082;52.822;6.666;2022-11-20T05:41:55;12.15;;;8.68;;
55210;SDS011;41082;52.822;6.666;2022-11-20T05:44:39;13.23;;;8.85;;
55210;SDS011;41082;52.822;6.666;2022-11-20T05:47:05;15.10;;;9.43;;
55210;SDS011;41082;52.822;6.666;2022-11-20T05:49:31;13.02;;;8.80;;
55210;SDS011;41082;52.822;6.666;2022-11-20T05:51:57;14.73;;;8.63;;
55210;SDS011;41082;52.822;6.666;2022-11-20T05:54:22;12.88;;;9.20;;
55210;SDS011;41082;52.822;6.666;2022-11-20T05:56:48;13.48;;;9.35;;
55210;SDS011;41082;52.822;6.666;2022-11-20T05:59:13;12.45;;;8.18;;
55210;SDS011;41082;52.822;6.666;2022-11-20T06:01:39;13.20;;;9.20;;
55210;SDS011;41082;52.822;6.666;2022-11-20T06:04:04;13.60;;;9.48;;
55210;SDS011;41082;52.822;6.666;2022-11-20T06:06:30;13.27;;;8.38;;
55210;SDS011;41082;52.822;6.666;2022-11-20T06:08:55;14.60;;;9.60;;
55210;SDS011;41082;52.822;6.666;2022-11-20T06:11:23;15.48;;;9.43;;
55210;SDS011;41082;52.822;6.666;2022-11-20T06:13:50;13.65;;;9.23;;
55210;SDS011;41082;52.822;6.666;2022-11-20T06:16:16;14.88;;;8.98;;
55210;SDS011;41082;52.822;6.666;2022-11-20T06:18:43;15.65;;;9.10;;
55210;SDS011;41082;52.822;6.666;2022-11-20T06:21:14;14.68;;;9.50;;
55210;SDS011;41082;52.822;6.666;2022-11-20T06:23:41;15.43;;;8.93;;
55210;SDS011;41082;52.822;6.666;2022-11-20T06:26:09;12.95;;;8.90;;
55210;SDS011;41082;52.822;6.666;2022-11-20T06:28:36;12.65;;;9.05;;
55210;SDS011;41082;52.822;6.666;2022-11-20T06:31:02;13.60;;;8.70;;
55210;SDS011;41082;52.822;6.666;2022-11-20T06:33:29;18.02;;;9.70;;
55210;SDS011;41082;52.822;6.666;2022-11-20T06:35:58;12.20;;;7.97;;
55210;SDS011;41082;52.822;6.666;2022-11-20T06:38:25;13.95;;;8.77;;
55210;SDS011;41082;52.822;6.666;2022-11-20T06:40:52;13.65;;;8.90;;
55210;SDS011;41082;52.822;6.666;2022-11-20T06:43:17;14.43;;;8.55;;
55210;SDS011;41082;52.822;6.666;2022-11-20T06:45:43;11.70;;;8.07;;
55210;SDS011;41082;52.822;6.666;2022-11-20T06:48:09;13.90;;;8.45;;
55210;SDS011;41082;52.822;6.666;2022-11-20T06:50:35;12.77;;;8.60;;
55210;SDS011;41082;52.822;6.666;2022-11-20T06:53:02;12.95;;;8.13;;
55210;SDS011;41082;52.822;6.666;2022-11-20T06:55:28;11.63;;;8.20;;
55210;SDS011;41082;52.822;6.666;2022-11-20T06:57:55;13.93;;;8.35;;
55210;SDS011;41082;52.822;6.666;2022-11-20T07:00:20;14.75;;;8.15;;
55210;SDS011;41082;52.822;6.666;2022-11-20T07:02:46;13.70;;;7.97;;
55210;SDS011;41082;52.822;6.666;2022-11-20T07:05:12;11.68;;;7.80;;
55210;SDS011;41082;52.822;6.666;2022-11-20T07:07:37;11.50;;;7.85;;
55210;SDS011;41082;52.822;6.666;2022-11-20T07:10:03;12.05;;;7.97;;
55210;SDS011;41082;52.822;6.666;2022-11-20T07:12:29;13.60;;;8.43;;
55210;SDS011;41082;52.822;6.666;2022-11-20T07:14:55;14.43;;;8.32;;
55210;SDS011;41082;52.822;6.666;2022-11-20T07:17:21;12.13;;;7.30;;
55210;SDS011;41082;52.822;6.666;2022-11-20T07:19:47;13.38;;;8.27;;
55210;SDS011;41082;52.822;6.666;2022-11-20T07:22:12;12.60;;;8.07;;
55210;SDS011;41082;52.822;6.666;2022-11-20T07:24:38;13.43;;;8.27;;
55210;SDS011;41082;52.822;6.666;2022-11-20T07:27:04;14.00;;;8.63;;
55210;SDS011;41082;52.822;6.666;2022-11-20T07:29:30;16.38;;;8.82;;
55210;SDS011;41082;52.822;6.666;2022-11-20T07:31:56;13.07;;;8.38;;
55210;SDS011;41082;52.822;6.666;2022-11-20T07:34:22;12.73;;;7.82;;
55210;SDS011;41082;52.822;6.666;2022-11-20T07:36:47;14.32;;;8.25;;
55210;SDS011;41082;52.822;6.666;2022-11-20T07:39:13;11.75;;;7.85;;
55210;SDS011;41082;52.822;6.666;2022-11-20T07:41:39;10.27;;;7.43;;
55210;SDS011;41082;52.822;6.666;2022-11-20T07:44:04;11.15;;;7.57;;
55210;SDS011;41082;52.822;6.666;2022-11-20T07:46:30;16.42;;;9.10;;
55210;SDS011;41082;52.822;6.666;2022-11-20T07:48:56;14.68;;;8.82;;
55210;SDS011;41082;52.822;6.666;2022-11-20T07:51:21;13.98;;;8.45;;
55210;SDS011;41082;52.822;6.666;2022-11-20T07:53:47;15.10;;;8.93;;
55210;SDS011;41082;52.822;6.666;2022-11-20T07:56:17;13.93;;;8.43;;
55210;SDS011;41082;52.822;6.666;2022-11-20T07:58:43;11.77;;;7.90;;
55210;SDS011;41082;52.822;6.666;2022-11-20T08:01:08;12.23;;;8.13;;
55210;SDS011;41082;52.822;6.666;2022-11-20T08:03:34;13.95;;;8.40;;
55210;SDS011;41082;52.822;6.666;2022-11-20T08:06:02;14.25;;;8.40;;
55210;SDS011;41082;52.822;6.666;2022-11-20T08:08:28;13.82;;;8.80;;
55210;SDS011;41082;52.822;6.666;2022-11-20T08:10:56;14.52;;;8.77;;
55210;SDS011;41082;52.822;6.666;2022-11-20T08:13:42;14.52;;;8.35;;
55210;SDS011;41082;52.822;6.666;2022-11-20T08:16:27;12.05;;;8.80;;
55210;SDS011;41082;52.822;6.666;2022-11-20T08:18:53;13.32;;;8.15;;
55210;SDS011;41082;52.822;6.666;2022-11-20T08:21:18;15.60;;;8.10;;
55210;SDS011;41082;52.822;6.666;2022-11-20T08:23:44;14.82;;;8.73;;
55210;SDS011;41082;52.822;6.666;2022-11-20T08:26:09;15.07;;;9.05;;
55210;SDS011;41082;52.822;6.666;2022-11-20T08:28:35;10.55;;;7.28;;
55210;SDS011;41082;52.822;6.666;2022-11-20T08:31:01;12.40;;;8.40;;
55210;SDS011;41082;52.822;6.666;2022-11-20T08:33:28;12.35;;;8.27;;
55210;SDS011;41082;52.822;6.666;2022-11-20T08:35:58;16.40;;;9.70;;
55210;SDS011;41082;52.822;6.666;2022-11-20T08:38:27;12.98;;;8.45;;
55210;SDS011;41082;52.822;6.666;2022-11-20T08:41:00;12.75;;;8.60;;
55210;SDS011;41082;52.822;6.666;2022-11-20T08:43:45;13.82;;;8.25;;
55210;SDS011;41082;52.822;6.666;2022-11-20T08:46:10;14.40;;;9.23;;
55210;SDS011;41082;52.822;6.666;2022-11-20T08:48:36;13.07;;;8.20;;
55210;SDS011;41082;52.822;6.666;2022-11-20T08:51:02;13.43;;;7.55;;
55210;SDS011;41082;52.822;6.666;2022-11-20T08:53:28;12.85;;;8.25;;
55210;SDS011;41082;52.822;6.666;2022-11-20T08:55:53;47.50;;;25.88;;
55210;SDS011;41082;52.822;6.666;2022-11-20T08:58:19;12.50;;;8.73;;
55210;SDS011;41082;52.822;6.666;2022-11-20T09:00:45;10.40;;;7.43;;
55210;SDS011;41082;52.822;6.666;2022-11-20T09:03:10;12.52;;;7.93;;
55210;SDS011;41082;52.822;6.666;2022-11-20T09:05:38;13.05;;;7.82;;
55210;SDS011;41082;52.822;6.666;2022-11-20T09:08:03;13.00;;;8.13;;
55210;SDS011;41082;52.822;6.666;2022-11-20T09:10:29;11.60;;;7.70;;
55210;SDS011;41082;52.822;6.666;2022-11-20T09:12:55;13.05;;;7.95;;
55210;SDS011;41082;52.822;6.666;2022-11-20T09:15:21;12.65;;;8.25;;
55210;SDS011;41082;52.822;6.666;2022-11-20T09:17:57;16.05;;;8.85;;
55210;SDS011;41082;52.822;6.666;2022-11-20T09:20:24;12.02;;;7.80;;
55210;SDS011;41082;52.822;6.666;2022-11-20T09:22:50;14.75;;;8.40;;
55210;SDS011;41082;52.822;6.666;2022-11-20T09:25:16;12.98;;;8.02;;
55210;SDS011;41082;52.822;6.666;2022-11-20T09:27:42;12.10;;;8.23;;
55210;SDS011;41082;52.822;6.666;2022-11-20T09:30:09;11.13;;;7.55;;
55210;SDS011;41082;52.822;6.666;2022-11-20T09:32:35;12.27;;;8.25;;
55210;SDS011;41082;52.822;6.666;2022-11-20T09:35:01;11.77;;;7.85;;
55210;SDS011;41082;52.822;6.666;2022-11-20T09:37:27;12.70;;;8.05;;
55210;SDS011;41082;52.822;6.666;2022-11-20T09:39:52;13.18;;;8.75;;
55210;SDS011;41082;52.822;6.666;2022-11-20T09:42:27;13.63;;;9.05;;
55210;SDS011;41082;52.822;6.666;2022-11-20T09:55:49;12.02;;;7.68;;
55210;SDS011;41082;52.822;6.666;2022-11-20T09:58:23;10.73;;;7.53;;
55210;SDS011;41082;52.822;6.666;2022-11-20T10:00:56;14.18;;;7.97;;
55210;SDS011;41082;52.822;6.666;2022-11-20T10:06:11;11.80;;;7.57;;
55210;SDS011;41082;52.822;6.666;2022-11-20T10:08:45;11.32;;;7.78;;
55210;SDS011;41082;52.822;6.666;2022-11-20T10:11:35;11.43;;;8.18;;
55210;SDS011;41082;52.822;6.666;2022-11-20T10:20:09;10.88;;;7.38;;
55210;SDS011;41082;52.822;6.666;2022-11-20T10:23:21;11.90;;;7.18;;
55210;SDS011;41082;52.822;6.666;2022-11-20T10:25:51;11.73;;;7.72;;
55210;SDS011;41082;52.822;6.666;2022-11-20T10:28:35;11.18;;;7.65;;
55210;SDS011;41082;52.822;6.666;2022-11-20T10:31:30;10.00;;;7.15;;
55210;SDS011;41082;52.822;6.666;2022-11-20T10:34:19;10.98;;;7.55;;
55210;SDS011;41082;52.822;6.666;2022-11-20T10:36:54;10.82;;;7.65;;
55210;SDS011;41082;52.822;6.666;2022-11-20T10:39:33;10.27;;;7.57;;
55210;SDS011;41082;52.822;6.666;2022-11-20T10:42:08;13.18;;;8.95;;
55210;SDS011;41082;52.822;6.666;2022-11-20T10:44:39;10.50;;;7.40;;
55210;SDS011;41082;52.822;6.666;2022-11-20T10:47:25;12.07;;;8.40;;
55210;SDS011;41082;52.822;6.666;2022-11-20T10:49:53;8.73;;;6.43;;
55210;SDS011;41082;52.822;6.666;2022-11-20T10:52:31;9.30;;;7.03;;
55210;SDS011;41082;52.822;6.666;2022-11-20T11:01:04;8.32;;;5.50;;
55210;SDS011;41082;52.822;6.666;2022-11-20T11:03:41;11.20;;;6.97;;
55210;SDS011;41082;52.822;6.666;2022-11-20T11:06:13;9.77;;;5.85;;
55210;SDS011;41082;52.822;6.666;2022-11-20T11:08:41;9.43;;;5.78;;
55210;SDS011;41082;52.822;6.666;2022-11-20T11:11:21;6.65;;;4.95;;
55210;SDS011;41082;52.822;6.666;2022-11-20T11:13:49;8.13;;;5.57;;
55210;SDS011;41082;52.822;6.666;2022-11-20T11:16:33;7.72;;;5.40;;
55210;SDS011;41082;52.822;6.666;2022-11-20T11:19:12;7.63;;;5.40;;
55210;SDS011;41082;52.822;6.666;2022-11-20T11:21:38;7.85;;;5.22;;
55210;SDS011;41082;52.822;6.666;2022-11-20T11:24:27;9.40;;;6.05;;
55210;SDS011;41082;52.822;6.666;2022-11-20T11:27:03;8.35;;;5.72;;
55210;SDS011;41082;52.822;6.666;2022-11-20T11:29:36;10.93;;;6.60;;
55210;SDS011;41082;52.822;6.666;2022-11-20T11:34:31;9.35;;;5.65;;
55210;SDS011;41082;52.822;6.666;2022-11-20T11:36:58;7.22;;;5.38;;
55210;SDS011;41082;52.822;6.666;2022-11-20T11:39:26;9.00;;;5.40;;
55210;SDS011;41082;52.822;6.666;2022-11-20T11:41:53;7.95;;;4.82;;
55210;SDS011;41082;52.822;6.666;2022-11-20T11:44:30;7.57;;;4.80;;
55210;SDS011;41082;52.822;6.666;2022-11-20T11:47:21;7.13;;;4.97;;
55210;SDS011;41082;52.822;6.666;2022-11-20T11:52:48;7.68;;;5.55;;
55210;SDS011;41082;52.822;6.666;2022-11-20T12:00:39;7.63;;;5.53;;
55210;SDS011;41082;52.822;6.666;2022-11-20T12:03:21;8.45;;;4.80;;
55210;SDS011;41082;52.822;6.666;2022-11-20T12:06:07;6.50;;;5.05;;
55210;SDS011;41082;52.822;6.666;2022-11-20T12:13:47;7.28;;;5.00;;
55210;SDS011;41082;52.822;6.666;2022-11-20T12:16:27;6.28;;;4.47;;
55210;SDS011;41082;52.822;6.666;2022-11-20T12:18:55;7.30;;;4.30;;
55210;SDS011;41082;52.822;6.666;2022-11-20T12:24:19;7.25;;;5.00;;
55210;SDS011;41082;52.822;6.666;2022-11-20T12:27:25;7.05;;;4.80;;
55210;SDS011;41082;52.822;6.666;2022-11-20T12:30:07;8.05;;;5.13;;
55210;SDS011;41082;52.822;6.666;2022-11-20T12:36:10;9.30;;;5.47;;
55210;SDS011;41082;52.822;6.666;2022-11-20T12:47:40;7.95;;;5.65;;
55210;SDS011;41082;52.822;6.666;2022-11-20T12:53:16;8.10;;;5.43;;
55210;SDS011;41082;52.822;6.666;2022-11-20T12:56:07;9.35;;;5.30;;
55210;SDS011;41082;52.822;6.666;2022-11-20T13:01:54;7.65;;;5.40;;
55210;SDS011;41082;52.822;6.666;2022-11-20T13:07:01;8.45;;;5.38;;
55210;SDS011;41082;52.822;6.666;2022-11-20T13:09:29;11.27;;;5.53;;
55210;SDS011;41082;52.822;6.666;2022-11-20T13:12:05;7.85;;;5.75;;
55210;SDS011;41082;52.822;6.666;2022-11-20T13:14:45;8.43;;;6.15;;
55210;SDS011;41082;52.822;6.666;2022-11-20T13:20:00;9.20;;;5.35;;
55210;SDS011;41082;52.822;6.666;2022-11-20T13:22:41;9.60;;;6.55;;
55210;SDS011;41082;52.822;6.666;2022-11-20T13:27:57;13.18;;;6.82;;
55210;SDS011;41082;52.822;6.666;2022-11-20T13:30:28;8.98;;;6.20;;
55210;SDS011;41082;52.822;6.666;2022-11-20T13:32:56;9.70;;;6.78;;
55210;SDS011;41082;52.822;6.666;2022-11-20T13:38:01;8.30;;;6.30;;
55210;SDS011;41082;52.822;6.666;2022-11-20T13:40:29;9.32;;;6.95;;
55210;SDS011;41082;52.822;6.666;2022-11-20T13:43:00;9.15;;;6.38;;
55210;SDS011;41082;52.822;6.666;2022-11-20T13:45:35;9.73;;;7.10;;
55210;SDS011;41082;52.822;6.666;2022-11-20T13:48:05;9.73;;;6.30;;
55210;SDS011;41082;52.822;6.666;2022-11-20T13:50:53;8.00;;;6.10;;
55210;SDS011;41082;52.822;6.666;2022-11-20T13:58:59;10.35;;;6.63;;
55210;SDS011;41082;52.822;6.666;2022-11-20T14:01:34;8.52;;;6.63;;
55210;SDS011;41082;52.822;6.666;2022-11-20T14:04:05;9.32;;;6.97;;
55210;SDS011;41082;52.822;6.666;2022-11-20T14:06:43;10.32;;;7.28;;
55210;SDS011;41082;52.822;6.666;2022-11-20T14:09:12;9.77;;;6.93;;
55210;SDS011;41082;52.822;6.666;2022-11-20T14:11:49;9.48;;;7.07;;
55210;SDS011;41082;52.822;6.666;2022-11-20T14:14:16;11.32;;;7.50;;
55210;SDS011;41082;52.822;6.666;2022-11-20T14:16:44;10.63;;;7.57;;
55210;SDS011;41082;52.822;6.666;2022-11-20T14:19:21;11.43;;;7.70;;
55210;SDS011;41082;52.822;6.666;2022-11-20T14:21:49;12.93;;;8.07;;
55210;SDS011;41082;52.822;6.666;2022-11-20T14:24:19;9.82;;;7.90;;
55210;SDS011;41082;52.822;6.666;2022-11-20T14:26:49;11.77;;;7.80;;
55210;SDS011;41082;52.822;6.666;2022-11-20T14:29:20;12.40;;;7.65;;
55210;SDS011;41082;52.822;6.666;2022-11-20T14:31:53;12.23;;;7.88;;
55210;SDS011;41082;52.822;6.666;2022-11-20T14:34:22;10.20;;;7.60;;
55210;SDS011;41082;52.822;6.666;2022-11-20T14:36:52;11.52;;;8.32;;
55210;SDS011;41082;52.822;6.666;2022-11-20T14:39:22;12.32;;;7.95;;
55210;SDS011;41082;52.822;6.666;2022-11-20T14:41:54;11.65;;;8.52;;
55210;SDS011;41082;52.822;6.666;2022-11-20T14:44:21;12.40;;;8.13;;
55210;SDS011;41082;52.822;6.666;2022-11-20T14:46:57;13.80;;;9.07;;
55210;SDS011;41082;52.822;6.666;2022-11-20T14:49:25;12.38;;;9.38;;
55210;SDS011;41082;52.822;6.666;2022-11-20T14:52:01;13.27;;;9.65;;
55210;SDS011;41082;52.822;6.666;2022-11-20T14:54:43;14.90;;;9.68;;
55210;SDS011;41082;52.822;6.666;2022-11-20T14:57:20;11.38;;;8.73;;
55210;SDS011;41082;52.822;6.666;2022-11-20T14:59:51;16.10;;;9.20;;
55210;SDS011;41082;52.822;6.666;2022-11-20T15:02:29;13.27;;;9.90;;
55210;SDS011;41082;52.822;6.666;2022-11-20T15:04:59;19.65;;;11.05;;
55210;SDS011;41082;52.822;6.666;2022-11-20T15:07:32;12.95;;;9.68;;
55210;SDS011;41082;52.822;6.666;2022-11-20T15:12:52;32.28;;;18.20;;
55210;SDS011;41082;52.822;6.666;2022-11-20T15:16:02;17.73;;;11.93;;
55210;SDS011;41082;52.822;6.666;2022-11-20T15:18:12;20.23;;;14.23;;
55210;SDS011;41082;52.822;6.666;2022-11-20T15:21:10;24.20;;;18.63;;
55210;SDS011;41082;52.822;6.666;2022-11-20T15:23:37;20.15;;;15.77;;
55210;SDS011;41082;52.822;6.666;2022-11-20T15:26:06;22.30;;;18.10;;
55210;SDS011;41082;52.822;6.666;2022-11-20T15:28:36;17.00;;;13.20;;
55210;SDS011;41082;52.822;6.666;2022-11-20T15:31:06;14.43;;;11.02;;
55210;SDS011;41082;52.822;6.666;2022-11-20T15:33:35;15.93;;;12.35;;
55210;SDS011;41082;52.822;6.666;2022-11-20T15:36:01;17.60;;;13.85;;
55210;SDS011;41082;52.822;6.666;2022-11-20T15:38:26;16.58;;;12.20;;
55210;SDS011;41082;52.822;6.666;2022-11-20T15:40:52;20.98;;;16.77;;
55210;SDS011;41082;52.822;6.666;2022-11-20T15:43:17;20.15;;;16.77;;
55210;SDS011;41082;52.822;6.666;2022-11-20T15:45:53;17.13;;;12.13;;
55210;SDS011;41082;52.822;6.666;2022-11-20T15:48:26;51.28;;;31.75;;
55210;SDS011;41082;52.822;6.666;2022-11-20T15:50:55;41.67;;;27.45;;
55210;SDS011;41082;52.822;6.666;2022-11-20T15:53:39;39.85;;;28.30;;
55210;SDS011;41082;52.822;6.666;2022-11-20T15:56:09;35.45;;;26.05;;
55210;SDS011;41082;52.822;6.666;2022-11-20T15:58:37;20.93;;;13.80;;
55210;SDS011;41082;52.822;6.666;2022-11-20T16:01:03;18.92;;;14.30;;
55210;SDS011;41082;52.822;6.666;2022-11-20T16:03:28;21.67;;;15.48;;
55210;SDS011;41082;52.822;6.666;2022-11-20T16:05:55;21.90;;;15.05;;
55210;SDS011;41082;52.822;6.666;2022-11-20T16:08:20;18.48;;;12.23;;
55210;SDS011;41082;52.822;6.666;2022-11-20T16:10:46;18.27;;;12.50;;
55210;SDS011;41082;52.822;6.666;2022-11-20T16:13:12;15.80;;;11.63;;
55210;SDS011;41082;52.822;6.666;2022-11-20T16:15:58;17.80;;;11.60;;
55210;SDS011;41082;52.822;6.666;2022-11-20T16:18:26;17.05;;;11.02;;
55210;SDS011;41082;52.822;6.666;2022-11-20T16:20:52;16.20;;;11.38;;